Time;durP1;ratioP1;P1;durP2;ratioP2;P2;SDS_P1;SDS_P2;PMS_P1;PMS_P2;Temp;Humidity;BMP_temperature;BMP_pressure;BME280_temperature;BME280_humidity;BME280_pressure;Samples;Min_cycle;Max_cycle;Signal;HPM_P1;HPM_P2
2023/09/18 00:00:25;;;;;;;18.80;12.85;;;;;;;17.93;68.31;95456.69;4932642;29;20035;-83
2023/09/18 00:02:50;;;;;;;18.17;12.15;;;;;;;18.00;67.99;95472.25;4933047;29;20056;-85
2023/09/18 00:05:15;;;;;;;17.42;14.18;;;;;;;17.98;68.10;95458.81;4932654;29;20046;-85
2023/09/18 00:07:44;;;;;;;18.00;13.18;;;;;;;18.04;67.98;95453.38;4949962;29;20537;-84
2023/09/18 00:10:13;;;;;;;17.17;12.63;;;;;;;18.07;67.33;95451.66;4950303;29;20513;-85
2023/09/18 00:12:40;;;;;;;15.98;12.18;;;;;;;18.07;67.17;95452.44;4934915;29;20034;-84
2023/09/18 00:15:06;;;;;;;17.33;13.45;;;;;;;18.05;66.93;95450.09;4939383;29;20110;-83
2023/09/18 00:17:31;;;;;;;16.25;12.65;;;;;;;17.99;67.35;95446.44;4935123;29;20023;-84
2023/09/18 00:19:57;;;;;;;14.63;12.07;;;;;;;18.01;66.90;95457.88;4950979;29;20120;-85
2023/09/18 00:22:24;;;;;;;16.63;14.23;;;;;;;18.06;67.18;95462.00;4950062;29;20500;-86
2023/09/18 00:24:49;;;;;;;14.95;12.93;;;;;;;18.04;66.58;95459.69;4950166;29;20031;-86
2023/09/18 00:27:15;;;;;;;17.98;12.50;;;;;;;18.00;66.47;95452.78;4950321;29;20055;-86
2023/09/18 00:29:41;;;;;;;15.80;12.27;;;;;;;18.02;66.37;95458.66;4950153;29;20034;-86
2023/09/18 00:32:07;;;;;;;15.32;11.95;;;;;;;18.01;66.17;95459.91;4933016;29;20036;-85
2023/09/18 00:34:33;;;;;;;14.77;11.45;;;;;;;17.97;65.65;95460.06;4932745;29;20114;-85
2023/09/18 00:36:59;;;;;;;16.52;12.05;;;;;;;17.98;65.73;95455.25;4933008;29;20430;-86
2023/09/18 00:39:25;;;;;;;17.70;10.88;;;;;;;18.01;65.29;95462.69;4949682;29;20429;-84
2023/09/18 00:41:53;;;;;;;16.35;10.93;;;;;;;17.88;65.53;95440.63;4932813;29;20558;-87
2023/09/18 00:44:28;;;;;;;15.50;11.90;;;;;;;17.90;65.94;95457.63;4933045;29;20101;-86
2023/09/18 00:46:55;;;;;;;13.77;11.60;;;;;;;17.91;65.71;95461.19;4934173;29;20043;-85
2023/09/18 00:49:22;;;;;;;13.57;11.40;;;;;;;17.91;65.48;95475.84;4951094;29;20031;-85
2023/09/18 00:51:48;;;;;;;15.75;13.30;;;;;;;17.87;65.78;95466.91;4932925;29;20028;-85
2023/09/18 00:54:15;;;;;;;15.75;11.90;;;;;;;17.83;65.88;95462.75;4933728;29;20039;-86
2023/09/18 00:56:40;;;;;;;13.75;11.75;;;;;;;17.85;65.76;95465.84;4934166;29;20037;-85
2023/09/18 00:59:06;;;;;;;19.13;11.60;;;;;;;17.83;65.35;95465.53;4932662;29;20019;-85
2023/09/18 01:01:31;;;;;;;17.75;12.35;;;;;;;17.82;65.12;95464.00;4931849;29;20028;-85
2023/09/18 01:03:57;;;;;;;18.83;12.27;;;;;;;17.79;65.24;95465.72;4931547;29;20471;-86
2023/09/18 01:06:27;;;;;;;18.75;13.45;;;;;;;17.81;66.21;95482.69;4916272;29;20561;-86
2023/09/18 01:08:54;;;;;;;15.00;11.80;;;;;;;17.75;65.62;95471.47;4931825;29;20043;-85
2023/09/18 01:11:48;;;;;;;19.17;13.13;;;;;;;17.78;65.75;95472.53;4932354;29;20027;-84
2023/09/18 01:14:25;;;;;;;17.63;13.38;;;;;;;17.78;66.77;95476.09;4931619;29;20315;-85
2023/09/18 01:16:58;;;;;;;14.23;11.77;;;;;;;17.78;66.05;95478.88;4931525;29;20122;-83
2023/09/18 01:19:45;;;;;;;16.75;13.38;;;;;;;17.80;65.55;95474.84;4931881;29;20086;-84
2023/09/18 01:22:11;;;;;;;14.38;11.73;;;;;;;17.73;65.35;95473.94;4948261;29;20046;-85
2023/09/18 01:24:38;;;;;;;17.60;12.30;;;;;;;17.76;65.11;95475.00;4931320;29;20039;-83
2023/09/18 01:27:04;;;;;;;16.05;11.52;;;;;;;17.74;66.14;95469.16;4948357;29;20157;-85
2023/09/18 01:29:30;;;;;;;16.23;11.32;;;;;;;17.70;65.63;95454.63;4915254;29;20039;-84
2023/09/18 01:31:56;;;;;;;13.77;11.05;;;;;;;17.76;65.50;95473.00;4931352;29;20129;-85
2023/09/18 01:34:35;;;;;;;15.73;11.95;;;;;;;17.72;65.36;95469.63;4931094;29;20051;-86
2023/09/18 01:37:03;;;;;;;15.38;11.80;;;;;;;17.71;65.59;95464.50;4917427;29;20420;-83
2023/09/18 01:39:31;;;;;;;13.60;10.95;;;;;;;17.67;65.78;95459.13;4931873;29;20038;-86
2023/09/18 01:42:01;;;;;;;14.27;12.45;;;;;;;17.70;65.52;95471.31;4932254;29;20107;-85
2023/09/18 01:44:28;;;;;;;14.57;11.40;;;;;;;17.72;65.60;95472.41;4931643;29;20106;-84
2023/09/18 01:46:55;;;;;;;15.55;11.15;;;;;;;17.71;65.32;95476.38;4948024;29;20031;-85
2023/09/18 01:49:34;;;;;;;14.07;11.25;;;;;;;17.66;65.32;95473.47;4948163;29;20183;-85
2023/09/18 01:51:59;;;;;;;14.75;11.23;;;;;;;17.69;65.40;95476.09;4930934;29;20042;-86
2023/09/18 01:54:25;;;;;;;14.35;11.07;;;;;;;17.69;65.42;95478.88;4948456;29;20110;-85
2023/09/18 01:56:51;;;;;;;16.45;11.18;;;;;;;17.68;65.75;95480.13;4930515;29;20484;-84
2023/09/18 01:59:17;;;;;;;13.77;10.95;;;;;;;17.66;66.04;95471.50;4931310;29;20031;-85
2023/09/18 02:01:43;;;;;;;13.20;11.10;;;;;;;17.69;65.63;95475.31;4914577;29;20081;-85
2023/09/18 02:04:09;;;;;;;14.50;11.50;;;;;;;17.62;65.71;95472.88;4948695;29;20031;-84
2023/09/18 02:06:35;;;;;;;14.73;11.00;;;;;;;17.62;65.89;95482.00;4955290;29;20031;-85
2023/09/18 02:09:00;;;;;;;14.10;10.65;;;;;;;17.63;65.99;95482.78;4947186;29;20031;-86
2023/09/18 02:11:26;;;;;;;15.85;10.70;;;;;;;17.67;66.47;95477.81;4937137;29;20020;-85
2023/09/18 02:13:52;;;;;;;14.13;11.48;;;;;;;17.68;66.31;95477.34;4950143;29;20411;-85
2023/09/18 02:16:22;;;;;;;12.48;11.07;;;;;;;17.66;66.43;95479.81;4948570;29;20439;-86
2023/09/18 02:18:48;;;;;;;14.32;11.23;;;;;;;17.62;66.64;95476.44;4947904;29;20425;-86
2023/09/18 02:21:20;;;;;;;12.55;10.93;;;;;;;17.60;66.73;95483.69;4949236;29;20095;-86
2023/09/18 02:23:49;;;;;;;17.00;11.82;;;;;;;17.67;66.72;95483.38;4931443;29;20475;-85
2023/09/18 02:26:14;;;;;;;15.65;12.27;;;;;;;17.65;66.76;95472.72;4935207;29;20058;-86
2023/09/18 02:28:40;;;;;;;13.85;12.38;;;;;;;17.63;66.38;95477.97;4954106;29;20027;-85
2023/09/18 02:31:05;;;;;;;13.23;11.85;;;;;;;17.63;66.60;95477.97;4934503;29;20024;-86
2023/09/18 02:33:30;;;;;;;14.30;12.35;;;;;;;17.67;66.83;95478.59;4952341;29;20367;-84
2023/09/18 02:35:57;;;;;;;18.52;12.80;;;;;;;17.65;66.60;95474.72;4951765;29;20034;-85
2023/09/18 02:38:22;;;;;;;16.45;12.60;;;;;;;17.60;66.64;95467.78;4935124;29;20086;-84
2023/09/18 02:40:48;;;;;;;14.95;12.70;;;;;;;17.69;66.49;95478.09;4934386;29;20023;-84
2023/09/18 02:43:13;;;;;;;14.95;12.93;;;;;;;17.71;66.68;95473.59;4951581;29;20031;-85
2023/09/18 02:45:39;;;;;;;14.45;12.68;;;;;;;17.70;66.47;95474.84;4934655;29;20023;-85
2023/09/18 02:48:05;;;;;;;14.43;12.60;;;;;;;17.67;66.57;95477.81;4951121;29;20061;-87
2023/09/18 02:50:30;;;;;;;15.13;12.40;;;;;;;17.65;66.66;95475.47;4951955;29;20024;-85
2023/09/18 02:52:56;;;;;;;13.93;12.00;;;;;;;17.66;66.74;95479.03;4933809;29;20166;-85
2023/09/18 02:55:21;;;;;;;14.85;11.68;;;;;;;17.61;66.46;95483.25;4951976;29;20486;-84
2023/09/18 02:57:47;;;;;;;13.07;11.13;;;;;;;17.69;66.29;95487.22;4951048;29;20031;-84
2023/09/18 03:00:13;;;;;;;13.90;10.88;;;;;;;17.66;66.34;95482.59;4951723;29;20026;-84
2023/09/18 03:02:38;;;;;;;13.80;11.73;;;;;;;17.66;66.57;95492.94;4933986;29;20027;-87
2023/09/18 03:05:04;;;;;;;11.88;10.68;;;;;;;17.69;66.48;95492.78;4951297;29;20039;-85
2023/09/18 03:07:30;;;;;;;13.13;10.85;;;;;;;17.65;66.36;95492.16;4952090;29;20039;-85
2023/09/18 03:09:55;;;;;;;14.18;10.90;;;;;;;17.66;66.29;95485.38;4951121;29;20020;-86
2023/09/18 03:12:22;;;;;;;12.35;11.02;;;;;;;17.73;66.08;95490.63;4951623;29;20452;-84
2023/09/18 03:14:47;;;;;;;12.80;10.93;;;;;;;17.74;66.42;95491.41;4950639;29;20032;-85
2023/09/18 03:17:13;;;;;;;15.18;11.48;;;;;;;17.74;66.00;95485.84;4934249;29;20038;-85
2023/09/18 03:19:38;;;;;;;13.05;10.77;;;;;;;17.70;66.29;95485.19;4933940;29;20023;-86
2023/09/18 03:22:04;;;;;;;13.82;10.10;;;;;;;17.66;66.34;95474.28;4950686;29;20062;-84
2023/09/18 03:24:29;;;;;;;12.82;10.73;;;;;;;17.69;66.59;95478.09;4933707;29;20035;-85
2023/09/18 03:26:55;;;;;;;11.13;9.90;;;;;;;17.67;66.39;95478.59;4950235;29;20047;-85
2023/09/18 03:29:20;;;;;;;13.07;9.75;;;;;;;17.64;66.64;95482.28;4933604;29;20110;-84
2023/09/18 03:31:46;;;;;;;12.77;10.70;;;;;;;17.62;66.75;95476.44;4950649;29;20032;-85
2023/09/18 03:34:11;;;;;;;15.70;11.55;;;;;;;17.60;66.71;95472.56;4951129;29;20464;-84
2023/09/18 03:36:38;;;;;;;12.43;10.43;;;;;;;17.58;66.37;95463.94;4917067;29;20486;-86
2023/09/18 03:39:04;;;;;;;15.43;10.55;;;;;;;17.66;66.40;95473.47;4950595;29;20030;-84
2023/09/18 03:41:33;;;;;;;14.73;10.70;;;;;;;17.60;66.21;95467.78;4917432;29;20028;-85
2023/09/18 03:44:02;;;;;;;13.95;10.48;;;;;;;17.52;66.79;95467.34;4917431;29;20077;-85
2023/09/18 03:46:28;;;;;;;13.38;10.75;;;;;;;17.55;66.55;95464.88;4950772;29;20075;-84
2023/09/18 03:48:53;;;;;;;15.77;10.82;;;;;;;17.56;66.64;95458.88;4950002;29;20023;-83
2023/09/18 03:51:19;;;;;;;16.75;11.60;;;;;;;17.58;66.70;95461.94;4950729;29;20063;-83
2023/09/18 03:53:45;;;;;;;13.73;11.00;;;;;;;17.52;66.97;95453.47;4950213;29;20019;-83
2023/09/18 03:56:10;;;;;;;16.30;11.10;;;;;;;17.59;66.65;95457.91;4950543;29;20035;-84
2023/09/18 03:58:36;;;;;;;13.32;11.10;;;;;;;17.61;66.38;95463.78;4933066;29;20150;-84
2023/09/18 04:01:01;;;;;;;15.45;11.18;;;;;;;17.63;66.61;95460.53;4937558;29;20091;-83
2023/09/18 04:03:27;;;;;;;14.05;12.13;;;;;;;17.63;66.55;95455.72;4951448;29;20063;-84
2023/09/18 04:05:52;;;;;;;16.63;11.75;;;;;;;17.64;66.28;95460.06;4932807;29;20110;-86
2023/09/18 04:08:18;;;;;;;15.38;12.93;;;;;;;17.65;66.19;95460.81;4950663;29;20027;-85
2023/09/18 04:10:44;;;;;;;15.82;11.75;;;;;;;17.59;66.59;95452.34;4932830;29;20030;-83
2023/09/18 04:13:10;;;;;;;19.55;14.10;;;;;;;17.64;66.27;95460.06;4932935;29;20034;-84
2023/09/18 04:15:37;;;;;;;15.27;12.43;;;;;;;17.58;66.29;95452.81;4949842;29;20035;-84
2023/09/18 04:18:06;;;;;;;17.45;13.38;;;;;;;17.64;66.36;95471.16;4932952;29;20112;-83
2023/09/18 04:20:31;;;;;;;20.30;14.07;;;;;;;17.71;66.03;95470.81;4949795;29;20035;-85
2023/09/18 04:23:22;;;;;;;18.38;13.73;;;;;;;17.70;66.12;95477.63;4932210;29;20035;-84
2023/09/18 04:25:49;;;;;;;18.00;14.38;;;;;;;17.64;66.13;95471.16;4932759;29;20031;-84
2023/09/18 04:28:16;;;;;;;23.92;14.43;;;;;;;17.57;66.02;95467.97;4916145;29;20491;-84
2023/09/18 04:30:41;;;;;;;20.35;14.65;;;;;;;17.62;66.48;95484.00;4933116;29;20039;-82
2023/09/18 04:33:07;;;;;;;19.70;14.45;;;;;;;17.63;66.29;95486.31;4949206;29;20071;-84
2023/09/18 04:35:32;;;;;;;19.05;15.05;;;;;;;17.61;66.57;95483.25;4932588;29;20031;-84
2023/09/18 04:37:59;;;;;;;19.17;15.05;;;;;;;17.65;66.20;95486.59;4932604;29;20357;-86
2023/09/18 04:40:26;;;;;;;20.73;13.77;;;;;;;17.59;66.58;95477.38;4915796;29;20422;-82
2023/09/18 04:42:51;;;;;;;19.90;13.25;;;;;;;17.61;66.64;95480.47;4932305;29;20519;-85
2023/09/18 04:45:17;;;;;;;19.67;13.73;;;;;;;17.70;66.09;95479.63;4948288;29;20529;-82
2023/09/18 04:47:42;;;;;;;20.40;13.73;;;;;;;17.69;66.29;95487.22;4915412;29;20406;-83
2023/09/18 04:50:08;;;;;;;21.15;13.63;;;;;;;17.69;66.21;95472.53;4931499;29;20053;-84
2023/09/18 04:52:34;;;;;;;22.13;14.65;;;;;;;17.75;66.29;95490.16;4932293;29;20464;-84
2023/09/18 04:54:59;;;;;;;20.70;14.00;;;;;;;17.74;66.10;95489.38;4915807;29;20526;-84
2023/09/18 04:57:25;;;;;;;19.52;14.10;;;;;;;17.76;66.03;95480.56;4931568;29;20435;-85
2023/09/18 04:59:50;;;;;;;20.38;13.90;;;;;;;17.82;65.97;95486.25;4932218;29;20499;-85
2023/09/18 05:02:16;;;;;;;19.38;13.65;;;;;;;17.91;65.87;95477.88;4948714;29;20043;-85
2023/09/18 05:04:42;;;;;;;17.48;13.45;;;;;;;17.88;65.87;95482.34;4932106;29;20094;-85
2023/09/18 05:07:07;;;;;;;21.88;12.85;;;;;;;17.84;65.70;95481.00;4916160;29;20031;-85
2023/09/18 05:09:34;;;;;;;20.80;13.57;;;;;;;17.88;65.73;95481.59;4950360;29;20027;-82
2023/09/18 05:11:59;;;;;;;22.42;13.57;;;;;;;17.92;65.53;95482.97;4940330;29;20028;-84
2023/09/18 05:14:25;;;;;;;17.73;13.35;;;;;;;17.91;65.89;95477.88;4954457;29;20114;-87
2023/09/18 05:16:50;;;;;;;20.05;13.45;;;;;;;17.86;66.15;95476.50;4933316;29;20254;-86
2023/09/18 05:19:16;;;;;;;19.70;13.68;;;;;;;17.98;65.67;95491.44;4949455;29;20520;-84
2023/09/18 05:21:41;;;;;;;21.35;13.63;;;;;;;17.98;65.54;95494.97;4949721;29;20026;-86
2023/09/18 05:24:07;;;;;;;19.50;13.45;;;;;;;18.00;65.16;95492.47;4949100;29;20023;-86
2023/09/18 05:26:33;;;;;;;20.83;14.25;;;;;;;18.05;65.31;95502.97;4931929;29;20054;-85
2023/09/18 05:28:59;;;;;;;21.05;13.00;;;;;;;18.07;65.40;95496.94;4915274;29;20066;-86
2023/09/18 05:31:24;;;;;;;19.55;13.90;;;;;;;18.13;65.45;95502.63;4949601;29;20383;-87
2023/09/18 05:33:50;;;;;;;20.95;14.18;;;;;;;18.15;65.04;95494.56;4949634;29;20132;-87
2023/09/18 05:36:15;;;;;;;19.83;14.40;;;;;;;18.11;65.05;95491.97;4950086;29;20774;-88
2023/09/18 05:38:43;;;;;;;20.92;12.70;;;;;;;18.17;64.94;95494.88;4932513;29;20466;-86
2023/09/18 05:41:09;;;;;;;17.75;13.13;;;;;;;18.19;64.75;95490.38;4932371;29;20099;-87
2023/09/18 05:43:35;;;;;;;16.63;12.65;;;;;;;18.20;64.79;95494.69;4932753;29;20036;-90
2023/09/18 05:46:01;;;;;;;18.50;12.70;;;;;;;18.28;64.46;95504.22;4949497;29;20094;-88
2023/09/18 05:48:26;;;;;;;17.30;12.63;;;;;;;18.27;64.22;95494.34;4933546;29;20027;-89
2023/09/18 05:50:53;;;;;;;17.27;12.15;;;;;;;18.28;64.05;95493.09;4946621;29;20458;-87
2023/09/18 05:53:22;;;;;;;22.58;12.73;;;;;;;18.39;63.71;95500.91;4949002;29;20031;-84
2023/09/18 05:55:47;;;;;;;16.73;12.85;;;;;;;18.37;63.83;95506.19;4917940;29;20047;-82
2023/09/18 05:58:14;;;;;;;16.80;11.85;;;;;;;18.46;63.98;95500.53;4930126;29;20020;-88
2023/09/18 06:00:39;;;;;;;17.17;11.68;;;;;;;18.64;63.30;95496.88;4918692;29;20482;-85
2023/09/18 06:03:06;;;;;;;16.90;12.43;;;;;;;18.76;62.63;95495.88;4913615;29;20027;-83
2023/09/18 06:05:33;;;;;;;18.35;12.63;;;;;;;18.84;62.31;95490.69;4915558;29;20035;-84
2023/09/18 06:07:59;;;;;;;16.55;12.90;;;;;;;18.92;62.22;95494.63;4930741;29;20579;-83
2023/09/18 06:10:25;;;;;;;19.63;13.50;;;;;;;18.97;62.56;95487.63;4945736;29;20027;-84
2023/09/18 06:12:50;;;;;;;20.58;13.25;;;;;;;19.04;62.84;95490.81;4930396;29;20059;-82
2023/09/18 06:15:15;;;;;;;18.13;12.95;;;;;;;19.22;61.70;95484.28;4931261;29;20090;-84
2023/09/18 06:17:43;;;;;;;18.10;13.15;;;;;;;19.32;61.46;95488.47;4946956;29;20110;-83
2023/09/18 06:20:09;;;;;;;19.92;14.00;;;;;;;19.40;61.53;95499.28;4931095;29;20118;-83
2023/09/18 06:22:36;;;;;;;17.58;12.55;;;;;;;19.54;60.72;95501.25;4914059;29;20039;-84
2023/09/18 06:25:02;;;;;;;19.80;13.90;;;;;;;19.55;60.62;95491.66;4914809;29;20038;-83
2023/09/18 06:27:27;;;;;;;23.65;14.65;;;;;;;19.59;60.80;95497.84;4930873;29;20051;-82
2023/09/18 06:29:53;;;;;;;19.25;13.73;;;;;;;19.63;60.22;95495.63;4929835;29;20249;-82
2023/09/18 06:32:18;;;;;;;15.50;12.77;;;;;;;19.67;59.60;95495.41;4931286;29;20027;-84
2023/09/18 06:34:44;;;;;;;19.80;13.88;;;;;;;19.72;59.71;95497.50;4914172;29;20130;-84
2023/09/18 06:37:12;;;;;;;17.33;13.07;;;;;;;19.82;59.92;95502.50;4915621;29;20398;-84
2023/09/18 06:39:38;;;;;;;18.27;13.02;;;;;;;19.95;59.18;95504.97;4914237;29;20039;-85
2023/09/18 06:42:04;;;;;;;15.98;12.23;;;;;;;20.01;59.30;95491.88;4948137;29;20031;-85
2023/09/18 06:44:29;;;;;;;17.45;13.25;;;;;;;20.03;59.09;95492.16;4930035;29;20026;-85
2023/09/18 06:46:54;;;;;;;15.07;12.48;;;;;;;20.19;58.33;95509.63;4947337;29;20023;-84
2023/09/18 06:49:20;;;;;;;18.00;12.27;;;;;;;20.26;58.45;95509.22;4930401;29;20051;-83
2023/09/18 06:51:45;;;;;;;16.20;12.00;;;;;;;20.34;58.21;95505.53;4929409;29;20494;-84
2023/09/18 06:54:15;;;;;;;16.27;11.40;;;;;;;20.43;58.11;95497.00;4915006;29;20031;-83
2023/09/18 06:56:41;;;;;;;21.13;13.45;;;;;;;20.54;57.76;95498.44;4913171;29;20042;-85
2023/09/18 06:59:06;;;;;;;15.65;11.30;;;;;;;20.58;56.91;95496.97;4931489;29;20030;-83
2023/09/18 07:01:33;;;;;;;17.95;11.30;;;;;;;20.61;57.11;95498.78;4946900;29;20027;-84
2023/09/18 07:03:59;;;;;;;15.57;10.32;;;;;;;20.72;56.39;95495.34;4930314;29;20508;-84
2023/09/18 07:06:25;;;;;;;13.60;10.45;;;;;;;20.74;56.08;95503.25;4930471;29;20115;-85
2023/09/18 07:08:50;;;;;;;12.68;10.35;;;;;;;20.82;56.00;95496.75;4929585;29;20106;-83
2023/09/18 07:11:16;;;;;;;14.65;11.00;;;;;;;21.00;56.05;95501.25;4916480;29;20027;-85
2023/09/18 07:13:43;;;;;;;15.95;10.73;;;;;;;21.07;56.09;95495.22;4932561;29;20050;-84
2023/09/18 07:16:09;;;;;;;15.65;10.80;;;;;;;21.21;55.58;95497.13;4918555;29;20038;-83
2023/09/18 07:18:34;;;;;;;15.57;10.50;;;;;;;21.15;54.40;95495.56;4932770;29;20028;-84
2023/09/18 07:21:00;;;;;;;14.60;11.23;;;;;;;20.89;55.25;95492.75;4950794;29;20546;-83
2023/09/18 07:23:25;;;;;;;14.85;11.45;;;;;;;20.91;55.20;95502.16;4932803;29;20121;-85
2023/09/18 07:25:50;;;;;;;15.20;10.98;;;;;;;21.01;55.38;95497.19;4932799;29;20038;-84
2023/09/18 07:28:17;;;;;;;15.82;11.82;;;;;;;21.16;55.54;95497.88;4917516;29;20095;-85
2023/09/18 07:30:47;;;;;;;15.05;11.30;;;;;;;21.42;54.55;95503.47;4932258;29;20031;-82
2023/09/18 07:33:16;;;;;;;17.50;10.85;;;;;;;21.50;54.72;95500.22;4917590;29;20031;-85
2023/09/18 07:35:41;;;;;;;15.40;11.43;;;;;;;21.62;54.22;95507.44;4932355;29;20039;-84
2023/09/18 07:38:07;;;;;;;16.75;10.98;;;;;;;21.80;53.81;95507.09;4933474;29;20035;-84
2023/09/18 07:40:33;;;;;;;16.38;11.20;;;;;;;21.91;53.34;95507.19;4951867;29;20055;-84
2023/09/18 07:42:58;;;;;;;17.35;11.25;;;;;;;22.06;53.02;95500.66;4933499;29;20078;-85
2023/09/18 07:45:24;;;;;;;14.15;11.35;;;;;;;22.17;52.60;95506.34;4919782;29;20023;-84
2023/09/18 07:47:49;;;;;;;15.57;11.15;;;;;;;22.31;51.82;95501.84;4951434;29;20622;-84
2023/09/18 07:50:15;;;;;;;16.55;11.77;;;;;;;22.38;51.69;95506.97;4920395;29;20019;-83
2023/09/18 07:52:42;;;;;;;13.15;10.25;;;;;;;22.41;50.88;95503.94;4936372;29;20098;-83
2023/09/18 07:55:07;;;;;;;15.52;11.88;;;;;;;22.48;51.45;95499.88;4918132;29;20494;-85
2023/09/18 07:57:34;;;;;;;15.13;11.32;;;;;;;22.56;51.21;95505.78;4931542;29;20254;-85
2023/09/18 08:00:06;;;;;;;16.88;11.48;;;;;;;22.67;50.46;95503.81;4933921;29;20038;-85
2023/09/18 08:02:32;;;;;;;18.70;12.23;;;;;;;22.74;50.68;95497.72;4933613;29;20039;-85
2023/09/18 08:04:57;;;;;;;20.92;12.40;;;;;;;22.88;50.64;95501.63;4932446;29;20382;-86
2023/09/18 08:07:22;;;;;;;20.63;11.77;;;;;;;23.01;49.98;95501.16;4917432;29;20106;-82
2023/09/18 08:09:49;;;;;;;25.95;11.90;;;;;;;23.15;49.34;95497.34;4931772;29;20042;-82
2023/09/18 08:12:14;;;;;;;51.70;14.30;;;;;;;23.25;49.04;95503.50;4933552;29;20034;-84
2023/09/18 08:14:39;;;;;;;18.73;11.20;;;;;;;23.29;48.95;95492.78;4932316;29;20031;-82
2023/09/18 08:17:05;;;;;;;16.90;10.85;;;;;;;23.36;48.65;95486.69;4921618;29;20032;-83
2023/09/18 08:19:35;;;;;;;13.82;10.25;;;;;;;23.52;48.40;95485.94;4916416;29;20059;-83
2023/09/18 08:22:00;;;;;;;13.52;10.10;;;;;;;23.62;47.95;95485.66;4932094;29;20024;-84
2023/09/18 08:24:26;;;;;;;13.32;9.88;;;;;;;23.74;48.15;95476.00;4916717;29;20114;-88
2023/09/18 08:26:51;;;;;;;13.30;10.23;;;;;;;23.89;46.63;95470.88;4948763;29;20118;-83
2023/09/18 08:29:17;;;;;;;13.18;10.15;;;;;;;24.00;46.07;95476.47;4932731;29;20498;-83
2023/09/18 08:31:43;;;;;;;11.80;9.55;;;;;;;24.13;45.99;95478.75;4931667;29;20034;-82
2023/09/18 08:34:08;;;;;;;13.32;10.05;;;;;;;24.31;46.20;95475.38;4932642;29;20019;-82
2023/09/18 08:36:34;;;;;;;15.27;10.43;;;;;;;24.55;45.58;95477.66;4930986;29;20035;-83
2023/09/18 08:38:59;;;;;;;11.27;9.25;;;;;;;24.76;45.17;95477.28;4932118;29;20051;-83
2023/09/18 08:41:28;;;;;;;13.13;10.43;;;;;;;25.01;44.64;95467.72;4931625;29;20016;-85
2023/09/18 08:43:58;;;;;;;11.55;9.15;;;;;;;25.24;43.39;95467.63;4916018;29;20494;-84
2023/09/18 08:46:24;;;;;;;13.07;9.25;;;;;;;25.49;43.72;95457.97;4916335;29;20027;-84
2023/09/18 08:48:50;;;;;;;12.05;9.95;;;;;;;25.71;43.00;95456.25;4948435;29;20027;-83
2023/09/18 08:51:16;;;;;;;10.98;8.90;;;;;;;26.02;42.50;95463.41;4931145;29;20126;-83
2023/09/18 08:53:41;;;;;;;13.88;9.60;;;;;;;26.24;42.03;95460.38;4931166;29;20059;-83
2023/09/18 08:56:08;;;;;;;10.07;8.20;;;;;;;26.53;40.79;95458.03;4932105;29;20031;-84
2023/09/18 08:58:39;;;;;;;12.65;9.05;;;;;;;26.79;40.86;95452.59;4930754;29;20027;-84
2023/09/18 09:01:06;;;;;;;10.70;8.35;;;;;;;27.05;40.12;95454.03;4932100;29;20031;-83
2023/09/18 09:03:34;;;;;;;11.55;8.82;;;;;;;27.31;39.12;95462.66;4931677;29;20023;-84
2023/09/18 09:06:01;;;;;;;9.90;8.50;;;;;;;27.56;38.69;95452.00;4931173;29;20079;-84
2023/09/18 09:08:27;;;;;;;13.90;8.27;;;;;;;27.72;38.26;95455.91;4916134;29;20079;-85
2023/09/18 09:10:53;;;;;;;10.15;7.65;;;;;;;27.89;37.39;95464.09;4930885;29;20034;-85
2023/09/18 09:13:21;;;;;;;12.18;8.45;;;;;;;28.01;36.38;95456.94;4931541;29;20043;-84
2023/09/18 09:15:49;;;;;;;11.82;8.23;;;;;;;28.13;36.88;95449.00;4930751;29;20027;-84
2023/09/18 09:18:15;;;;;;;11.65;8.55;;;;;;;28.38;37.26;95446.75;4916117;29;20477;-83
2023/09/18 09:20:41;;;;;;;10.50;7.82;;;;;;;28.62;35.83;95448.59;4915560;29;20038;-86
2023/09/18 09:23:09;;;;;;;12.82;7.95;;;;;;;28.79;35.45;95449.03;4930912;29;20031;-87
2023/09/18 09:25:35;;;;;;;11.73;8.50;;;;;;;28.87;34.85;95440.63;4915658;29;20031;-84
2023/09/18 09:28:05;;;;;;;12.00;8.50;;;;;;;29.12;34.58;95441.16;4930581;29;20050;-84
2023/09/18 09:30:32;;;;;;;9.43;6.93;;;;;;;29.29;33.43;95438.69;4931997;29;20078;-83
2023/09/18 09:32:58;;;;;;;11.05;7.57;;;;;;;29.54;33.13;95442.00;4929756;28;20057;-84
2023/09/18 09:35:37;;;;;;;11.13;7.25;;;;;;;29.60;33.58;95439.81;4948706;29;20070;-84
2023/09/18 09:38:06;;;;;;;9.75;6.95;;;;;;;29.86;33.17;95425.47;4947760;29;20048;-84
2023/09/18 09:40:31;;;;;;;11.10;7.45;;;;;;;30.15;32.15;95428.38;4948654;29;20032;-84
2023/09/18 09:43:00;;;;;;;8.93;6.07;;;;;;;30.33;31.46;95427.34;4916005;29;20046;-83
2023/09/18 09:45:30;;;;;;;7.80;6.70;;;;;;;30.73;31.28;95429.13;4914609;29;20032;-84
2023/09/18 09:47:57;;;;;;;10.05;6.93;;;;;;;31.05;31.19;95426.59;4948747;29;20525;-84
2023/09/18 09:50:25;;;;;;;7.55;6.75;;;;;;;31.21;30.61;95430.25;4913689;29;20043;-85
2023/09/18 09:52:53;;;;;;;7.72;6.85;;;;;;;31.52;30.23;95427.50;4931082;29;20031;-84
2023/09/18 09:55:26;;;;;;;9.43;6.55;;;;;;;31.60;29.08;95423.38;4930430;29;20034;-84
2023/09/18 09:57:57;;;;;;;7.95;6.88;;;;;;;32.10;28.58;95412.41;4914939;29;20035;-83
2023/09/18 10:00:40;;;;;;;7.55;6.68;;;;;;;32.44;27.78;95422.63;4914969;29;20097;-83
2023/09/18 10:03:08;;;;;;;6.53;5.80;;;;;;;32.88;26.67;95413.81;4914877;29;20423;-84
2023/09/18 10:05:39;;;;;;;10.05;6.43;;;;;;;33.38;26.64;95420.38;4931601;29;20106;-83
2023/09/18 10:08:10;;;;;;;8.90;7.32;;;;;;;34.00;26.13;95407.25;4929200;29;20031;-84
2023/09/18 10:10:48;;;;;;;9.10;6.85;;;;;;;34.74;25.01;95407.69;4914586;29;20290;-84
2023/09/18 10:13:21;;;;;;;8.20;6.47;;;;;;;35.59;24.23;95411.00;4930376;29;20027;-84
2023/09/18 10:15:49;;;;;;;7.43;6.30;;;;;;;36.32;23.29;95408.13;4929753;29;20515;-84
2023/09/18 10:18:26;;;;;;;7.88;6.00;;;;;;;37.03;22.34;95401.28;4915008;29;20095;-84
2023/09/18 10:20:57;;;;;;;8.35;6.20;;;;;;;37.80;21.24;95400.38;4929622;29;20049;-84
2023/09/18 10:23:52;;;;;;;6.33;4.77;;;;;;;38.00;20.58;95396.06;4930289;29;20042;-84
2023/09/18 10:26:28;;;;;;;6.97;4.90;;;;;;;37.77;20.12;95392.22;4930259;29;20226;-84
2023/09/18 10:28:58;;;;;;;6.43;5.00;;;;;;;38.33;19.81;95391.84;4914367;29;20370;-83
2023/09/18 10:31:25;;;;;;;6.32;5.05;;;;;;;38.01;20.55;95385.31;4931161;29;20054;-82
2023/09/18 10:33:51;;;;;;;7.18;5.15;;;;;;;38.20;19.87;95375.88;4913673;29;20055;-86
2023/09/18 10:36:18;;;;;;;5.82;4.70;;;;;;;38.80;19.63;95369.13;4914470;29;20031;-83
2023/09/18 10:38:50;;;;;;;7.30;4.90;;;;;;;39.42;19.33;95366.00;4930293;29;20035;-85
2023/09/18 10:41:17;;;;;;;;;;;;;;;39.84;18.80;95365.03;4914942;29;20477;-84
2023/09/18 10:43:43;;;;;;;6.97;5.20;;;;;;;39.63;18.53;95370.91;4946431;29;19958;-84
2023/09/18 10:46:08;;;;;;;6.60;4.47;;;;;;;40.37;17.64;95365.38;4915281;29;20083;-83
2023/09/18 10:48:34;;;;;;;8.98;4.65;;;;;;;40.78;17.49;95362.06;4934077;29;20023;-84
2023/09/18 10:51:05;;;;;;;4.63;3.95;;;;;;;40.99;16.71;95358.22;4933099;29;20043;-84
2023/09/18 10:53:32;;;;;;;7.63;4.53;;;;;;;39.98;17.96;95348.66;4935097;29;20532;-83
2023/09/18 10:55:58;;;;;;;7.65;4.00;;;;;;;40.40;17.37;95358.38;4917545;29;20035;-85
2023/09/18 10:58:25;;;;;;;4.35;3.58;;;;;;;41.10;17.12;95351.66;4934057;29;20023;-84
2023/09/18 11:00:51;;;;;;;6.47;4.50;;;;;;;41.40;16.55;95346.84;4934291;29;20043;-85
2023/09/18 11:03:18;;;;;;;4.18;3.47;;;;;;;41.76;16.28;95356.81;4932949;29;20027;-85
2023/09/18 11:05:47;;;;;;;4.20;3.80;;;;;;;41.82;16.21;95347.72;4934199;29;20031;-84
2023/09/18 11:08:35;;;;;;;6.28;3.67;;;;;;;42.25;15.78;95344.97;4932545;29;20117;-85
2023/09/18 11:11:11;;;;;;;5.95;3.80;;;;;;;42.74;15.84;95340.97;4934089;29;20155;-85
2023/09/18 11:13:56;;;;;;;5.07;3.67;;;;;;;42.40;15.64;95335.66;4918247;29;20031;-83
2023/09/18 11:16:27;;;;;;;6.32;3.70;;;;;;;42.69;14.92;95337.88;4919632;29;20149;-84
2023/09/18 11:18:59;;;;;;;5.65;3.08;;;;;;;42.63;15.09;95339.69;4935246;29;20078;-83
2023/09/18 11:21:27;;;;;;;4.05;3.10;;;;;;;42.39;15.06;95339.19;4933109;29;20044;-84